Time;durP1;ratioP1;P1;durP2;ratioP2;P2;SDS_P1;SDS_P2;PMS_P1;PMS_P2;Temp;Humidity;BMP_temperature;BMP_pressure;BME280_temperature;BME280_humidity;BME280_pressure;Samples;Min_cycle;Max_cycle;Signal;HPM_P1;HPM_P2
2023/08/21 00:00:01;;;;;;;13.77;9.25;;;;;;;-145.33;100.00;60416.63;4989423;28;20457;-22
2023/08/21 00:02:27;;;;;;;11.52;8.98;;;;;;;-145.33;100.00;60416.63;4989202;28;20465;-22
2023/08/21 00:04:53;;;;;;;16.10;9.55;;;;;;;-145.33;100.00;60416.63;4988902;28;20512;-22
2023/08/21 00:07:19;;;;;;;15.13;9.98;;;;;;;-145.33;100.00;60416.63;4988830;28;20086;-22
2023/08/21 00:09:45;;;;;;;12.27;9.82;;;;;;;-145.33;100.00;60416.63;4988547;28;20524;-22
2023/08/21 00:12:10;;;;;;;15.70;9.90;;;;;;;-145.33;100.00;60416.63;4988883;28;20018;-22
2023/08/21 00:14:35;;;;;;;12.45;9.50;;;;;;;-145.33;100.00;60416.63;4988980;28;20026;-23
2023/08/21 00:17:03;;;;;;;15.25;10.30;;;;;;;-145.33;100.00;60416.63;4988928;28;20037;-26
2023/08/21 00:19:28;;;;;;;13.20;10.82;;;;;;;-145.33;100.00;60416.63;4988980;28;20030;-23
2023/08/21 00:21:54;;;;;;;16.55;11.10;;;;;;;-145.33;100.00;60416.63;4988700;28;20052;-22
2023/08/21 00:24:19;;;;;;;20.75;13.48;;;;;;;-145.33;100.00;60416.63;4988877;28;20317;-22
2023/08/21 00:26:45;;;;;;;38.28;22.65;;;;;;;-145.33;100.00;60416.63;4988771;28;20026;-22
2023/08/21 00:29:10;;;;;;;28.85;17.48;;;;;;;-145.33;100.00;60416.63;4988527;28;20027;-22
2023/08/21 00:31:36;;;;;;;26.65;15.02;;;;;;;-145.33;100.00;60416.63;4988602;28;20041;-23
2023/08/21 00:34:01;;;;;;;23.30;17.00;;;;;;;-145.33;100.00;60416.63;4988593;28;20093;-23
2023/08/21 00:36:26;;;;;;;33.60;21.17;;;;;;;-145.33;100.00;60416.63;4989017;28;20018;-22
2023/08/21 00:38:52;;;;;;;28.08;17.10;;;;;;;-145.33;100.00;60416.63;4988222;28;20045;-22
2023/08/21 00:41:18;;;;;;;21.08;14.10;;;;;;;-145.33;100.00;60416.63;4988358;28;20137;-23
2023/08/21 00:43:45;;;;;;;19.75;13.82;;;;;;;-145.33;100.00;60416.63;4988179;28;20041;-23
2023/08/21 00:46:11;;;;;;;17.10;13.55;;;;;;;-145.33;100.00;60416.63;4988307;28;20726;-22
2023/08/21 00:48:37;;;;;;;17.60;13.25;;;;;;;-145.33;100.00;60416.63;4988129;28;20045;-22
2023/08/21 00:51:03;;;;;;;16.13;12.77;;;;;;;-145.33;100.00;60416.63;4988335;28;20084;-23
2023/08/21 00:53:29;;;;;;;18.13;14.30;;;;;;;-145.33;100.00;60416.63;4988151;28;20030;-23
2023/08/21 00:55:55;;;;;;;18.10;12.57;;;;;;;-145.33;100.00;60416.63;4987856;28;20034;-24
2023/08/21 00:58:20;;;;;;;18.35;13.70;;;;;;;-145.33;100.00;60416.63;4988203;28;20030;-23
2023/08/21 01:00:49;;;;;;;27.15;18.33;;;;;;;-145.33;100.00;60416.63;4988076;28;20023;-22
2023/08/21 01:03:14;;;;;;;37.70;21.55;;;;;;;-145.33;100.00;60416.63;4986515;28;20505;-23
2023/08/21 01:05:40;;;;;;;38.85;24.05;;;;;;;-145.33;100.00;60416.63;4987728;28;20030;-23
2023/08/21 01:08:14;;;;;;;39.28;23.45;;;;;;;-145.33;100.00;60416.63;4999047;28;20100;-24
2023/08/21 01:10:45;;;;;;;30.17;21.00;;;;;;;-145.33;100.00;60416.63;5007405;28;20095;-22
2023/08/21 01:13:24;;;;;;;38.25;23.23;;;;;;;-145.33;100.00;60416.63;5007428;28;20042;-23
2023/08/21 01:15:53;;;;;;;29.05;19.25;;;;;;;-145.33;100.00;60416.63;5007254;28;20501;-22
2023/08/21 01:18:21;;;;;;;24.77;17.38;;;;;;;-145.33;100.00;60416.63;5007377;28;20034;-23
2023/08/21 01:20:47;;;;;;;24.42;16.48;;;;;;;-145.33;100.00;60416.63;5006949;28;20064;-22
2023/08/21 01:23:32;;;;;;;20.30;14.53;;;;;;;-145.33;100.00;60416.63;5007179;28;20041;-22
2023/08/21 01:25:57;;;;;;;16.70;12.73;;;;;;;-145.33;100.00;60416.63;5007082;28;20575;-22
2023/08/21 01:28:23;;;;;;;26.02;17.02;;;;;;;-145.33;100.00;60416.63;5007261;28;20037;-22
2023/08/21 01:30:54;;;;;;;34.15;20.23;;;;;;;-145.33;100.00;60416.63;5006688;28;20116;-22
2023/08/21 01:33:22;;;;;;;29.48;19.15;;;;;;;-145.33;100.00;60416.63;5007076;28;20033;-22
2023/08/21 01:35:49;;;;;;;43.00;24.13;;;;;;;-145.33;100.00;60416.63;5007020;28;20026;-22
2023/08/21 01:38:14;;;;;;;45.55;26.27;;;;;;;-145.33;100.00;60416.63;5006897;28;20034;-22
2023/08/21 01:40:40;;;;;;;41.85;23.52;;;;;;;-145.33;100.00;60416.63;5006542;28;20018;-23
2023/08/21 01:43:06;;;;;;;42.83;24.90;;;;;;;-145.33;100.00;60416.63;5006845;28;20454;-24
2023/08/21 01:45:31;;;;;;;45.22;24.08;;;;;;;-145.33;100.00;60416.63;5006915;28;20030;-22
2023/08/21 01:47:56;;;;;;;26.10;18.23;;;;;;;-145.33;100.00;60416.63;5006550;28;20394;-24
2023/08/21 01:50:22;;;;;;;26.65;15.77;;;;;;;-145.33;100.00;60416.63;5006660;28;20036;-22
2023/08/21 01:52:47;;;;;;;23.33;12.80;;;;;;;-145.33;100.00;60416.63;5006473;28;20026;-22
2023/08/21 01:55:13;;;;;;;16.25;11.07;;;;;;;-145.33;100.00;60416.63;5007007;28;20033;-22
2023/08/21 01:57:38;;;;;;;13.63;10.20;;;;;;;-145.33;100.00;60416.63;5006540;28;20406;-22
2023/08/21 02:00:04;;;;;;;16.58;11.20;;;;;;;-145.33;100.00;60416.63;5006789;28;20033;-22
2023/08/21 02:02:30;;;;;;;11.88;10.30;;;;;;;-145.33;100.00;60416.63;5006170;28;20501;-23
2023/08/21 02:04:56;;;;;;;16.25;10.45;;;;;;;-145.33;100.00;60416.63;5006581;28;20026;-22
2023/08/21 02:07:21;;;;;;;13.70;10.55;;;;;;;-145.33;100.00;60416.63;5006213;28;20054;-22
2023/08/21 02:09:47;;;;;;;12.70;9.50;;;;;;;-145.33;100.00;60416.63;5006261;28;21219;-22
2023/08/21 02:12:12;;;;;;;11.55;9.68;;;;;;;-145.33;100.00;60416.63;5006356;28;20068;-23
2023/08/21 02:14:37;;;;;;;22.10;13.05;;;;;;;-145.33;100.00;60416.63;5005655;28;20413;-22
2023/08/21 02:17:03;;;;;;;46.42;26.95;;;;;;;-145.33;100.00;60416.63;5006516;28;20033;-22
2023/08/21 02:19:28;;;;;;;39.47;23.30;;;;;;;-145.33;100.00;60416.63;5006386;28;20026;-22
2023/08/21 02:21:54;;;;;;;34.22;19.08;;;;;;;-145.33;100.00;60416.63;5005974;28;20561;-21
2023/08/21 02:24:19;;;;;;;39.83;25.20;;;;;;;-145.33;100.00;60416.63;5005956;28;20113;-22
2023/08/21 02:26:45;;;;;;;37.78;23.13;;;;;;;-145.33;100.00;60416.63;5005831;28;20022;-22
2023/08/21 02:29:11;;;;;;;19.98;13.88;;;;;;;-145.33;100.00;60416.63;5006382;28;20029;-22
2023/08/21 02:31:36;;;;;;;16.15;10.35;;;;;;;-145.33;100.00;60416.63;5006059;28;20098;-23
2023/08/21 02:34:02;;;;;;;12.90;10.45;;;;;;;-145.33;100.00;60416.63;5006113;28;20025;-22
2023/08/21 02:36:27;;;;;;;12.02;9.65;;;;;;;-145.33;100.00;60416.63;5005908;28;20417;-22
2023/08/21 02:38:53;;;;;;;15.38;10.25;;;;;;;-145.33;100.00;60416.63;5006128;28;20022;-22
2023/08/21 02:41:18;;;;;;;15.02;10.35;;;;;;;-145.33;100.00;60416.63;5005594;28;20018;-22
2023/08/21 02:43:44;;;;;;;13.45;9.15;;;;;;;-145.33;100.00;60416.63;5005886;28;20034;-23
2023/08/21 02:46:09;;;;;;;12.02;9.85;;;;;;;-145.33;100.00;60416.63;5005483;28;20037;-31
2023/08/21 02:48:35;;;;;;;11.75;9.52;;;;;;;-145.33;100.00;60416.63;5005909;28;20034;-22
2023/08/21 02:51:02;;;;;;;13.57;9.10;;;;;;;-145.33;100.00;60416.63;5005475;28;20056;-23
2023/08/21 02:53:28;;;;;;;11.75;9.95;;;;;;;-145.33;100.00;60416.63;5005557;28;20837;-22
2023/08/21 02:55:53;;;;;;;13.25;10.40;;;;;;;-145.33;100.00;60416.63;5005591;28;20040;-23
2023/08/21 02:58:19;;;;;;;13.27;9.93;;;;;;;-145.33;100.00;60416.63;5005192;28;20025;-23
2023/08/21 03:00:44;;;;;;;13.82;10.18;;;;;;;-145.33;100.00;60416.63;5005866;28;20030;-23
2023/08/21 03:03:11;;;;;;;13.50;10.15;;;;;;;-145.33;100.00;60416.63;5005406;28;20038;-22
2023/08/21 03:05:36;;;;;;;14.20;8.63;;;;;;;-145.33;100.00;60416.63;5005712;28;20030;-22
2023/08/21 03:08:01;;;;;;;13.95;9.60;;;;;;;-145.33;100.00;60416.63;5005020;28;20045;-22
2023/08/21 03:10:28;;;;;;;16.38;10.00;;;;;;;-145.33;100.00;60416.63;5005250;28;20775;-22
2023/08/21 03:12:55;;;;;;;14.05;9.48;;;;;;;-145.33;100.00;60416.63;5005617;28;20061;-22
2023/08/21 03:15:20;;;;;;;21.23;11.43;;;;;;;-145.33;100.00;60416.63;5005019;28;20512;-22
2023/08/21 03:17:46;;;;;;;27.75;15.18;;;;;;;-145.33;100.00;60416.63;5005483;28;20030;-22
2023/08/21 03:20:11;;;;;;;28.98;16.95;;;;;;;-145.33;100.00;60416.63;5004878;28;20026;-22
2023/08/21 03:22:37;;;;;;;21.77;14.52;;;;;;;-145.33;100.00;60416.63;5005748;28;20037;-22
2023/08/21 03:25:02;;;;;;;17.25;11.55;;;;;;;-145.33;100.00;60416.63;5004726;28;20061;-22
2023/08/21 03:27:28;;;;;;;17.30;11.18;;;;;;;-145.33;100.00;60416.63;5004994;28;20040;-22
2023/08/21 03:29:54;;;;;;;15.30;10.80;;;;;;;-145.33;100.00;60416.63;5005211;28;20034;-24
2023/08/21 03:32:19;;;;;;;16.65;11.55;;;;;;;-145.33;100.00;60416.63;5005446;28;20038;-22
2023/08/21 03:34:45;;;;;;;19.35;12.10;;;;;;;-145.33;100.00;60416.63;5005151;28;20061;-21
2023/08/21 03:37:10;;;;;;;19.67;11.65;;;;;;;-145.33;100.00;60416.63;5005298;28;20033;-23
2023/08/21 03:39:36;;;;;;;26.35;11.60;;;;;;;-145.33;100.00;60416.63;5005433;28;20033;-23
2023/08/21 03:42:02;;;;;;;16.88;11.10;;;;;;;-145.33;100.00;60416.63;5004971;28;20036;-22
2023/08/21 03:44:27;;;;;;;15.73;10.30;;;;;;;-145.33;100.00;60416.63;5005452;28;20034;-24
2023/08/21 03:46:53;;;;;;;14.85;9.98;;;;;;;-145.33;100.00;60416.63;5004893;28;20022;-22
2023/08/21 03:49:18;;;;;;;15.38;9.75;;;;;;;-145.33;100.00;60416.63;5005278;28;20095;-22
2023/08/21 03:51:43;;;;;;;26.63;14.95;;;;;;;-145.33;100.00;60416.63;5005256;28;20033;-23
2023/08/21 03:54:09;;;;;;;26.73;14.45;;;;;;;-145.33;100.00;60416.63;5004740;28;20068;-24
2023/08/21 03:56:34;;;;;;;20.30;12.65;;;;;;;-145.33;100.00;60416.63;5005294;28;20121;-22
2023/08/21 03:59:00;;;;;;;16.60;10.52;;;;;;;-145.33;100.00;60416.63;5004847;28;20165;-22
2023/08/21 04:01:25;;;;;;;18.77;10.50;;;;;;;-145.33;100.00;60416.63;5005074;28;20093;-22
2023/08/21 04:03:51;;;;;;;15.73;9.70;;;;;;;-145.33;100.00;60416.63;5004572;28;20034;-29
2023/08/21 04:06:16;;;;;;;11.48;8.55;;;;;;;-145.33;100.00;60416.63;5004848;28;20022;-23
2023/08/21 04:08:42;;;;;;;12.98;9.48;;;;;;;-145.33;100.00;60416.63;5005018;28;20112;-22
2023/08/21 04:11:07;;;;;;;16.42;9.65;;;;;;;-145.33;100.00;60416.63;5005180;28;20033;-23
2023/08/21 04:13:32;;;;;;;26.35;15.52;;;;;;;-145.33;100.00;60416.63;5004931;28;20036;-25
2023/08/21 04:15:58;;;;;;;20.23;13.77;;;;;;;-145.33;100.00;60416.63;5004889;28;20030;-23
2023/08/21 04:18:23;;;;;;;17.05;11.00;;;;;;;-145.33;100.00;60416.63;5004978;28;20022;-22
2023/08/21 04:20:49;;;;;;;14.77;10.15;;;;;;;-145.33;100.00;60416.63;5005469;28;20124;-22
2023/08/21 04:23:14;;;;;;;15.77;9.10;;;;;;;-145.33;100.00;60416.63;5005192;28;20038;-22
2023/08/21 04:25:40;;;;;;;11.65;9.10;;;;;;;-145.33;100.00;60416.63;5004788;28;20034;-23
2023/08/21 04:28:07;;;;;;;12.57;9.27;;;;;;;-145.33;100.00;60416.63;5005422;28;20441;-25
2023/08/21 04:30:33;;;;;;;;;;;;;;;-145.33;100.00;60416.63;5005532;28;20033;-22
2023/08/21 04:32:59;;;;;;;13.07;8.90;;;;;;;-145.33;100.00;60416.63;5005164;28;19913;-23
2023/08/21 04:35:24;;;;;;;12.45;9.00;;;;;;;-145.33;100.00;60416.63;5005213;28;20030;-23
2023/08/21 04:37:50;;;;;;;13.25;9.13;;;;;;;-145.33;100.00;60416.63;5006378;28;20421;-22
2023/08/21 04:40:20;;;;;;;12.30;9.20;;;;;;;-145.33;100.00;60416.63;5008954;28;20028;-22
2023/08/21 04:42:48;;;;;;;14.82;8.35;;;;;;;-145.33;100.00;60416.63;5008355;28;20532;-22
2023/08/21 04:45:16;;;;;;;13.38;9.48;;;;;;;-145.33;100.00;60416.63;5008677;28;20037;-22
2023/08/21 04:47:42;;;;;;;15.27;8.95;;;;;;;-145.33;100.00;60416.63;5008062;28;20034;-23
2023/08/21 04:50:07;;;;;;;19.23;11.88;;;;;;;-145.33;100.00;60416.63;5008540;28;21034;-22
2023/08/21 04:52:33;;;;;;;33.72;19.42;;;;;;;-145.33;100.00;60416.63;5023511;28;20092;-22
2023/08/21 04:54:58;;;;;;;51.20;29.65;;;;;;;-145.33;100.00;60416.63;5008067;28;20465;-22
2023/08/21 04:57:26;;;;;;;18.55;13.45;;;;;;;-145.33;100.00;60416.63;5008480;28;20030;-23
2023/08/21 04:59:51;;;;;;;20.63;14.25;;;;;;;-145.33;100.00;60416.63;5008078;28;20414;-25
2023/08/21 05:02:16;;;;;;;14.45;9.95;;;;;;;-145.33;100.00;60416.63;5008147;28;20493;-22
2023/08/21 05:04:42;;;;;;;14.52;10.27;;;;;;;-145.33;100.00;60416.63;5008114;28;20033;-22
2023/08/21 05:07:07;;;;;;;13.20;9.60;;;;;;;-145.33;100.00;60416.63;5008179;28;20104;-23
2023/08/21 05:09:33;;;;;;;10.95;9.38;;;;;;;-145.33;100.00;60416.63;5023170;28;20125;-21
2023/08/21 05:11:58;;;;;;;14.07;8.63;;;;;;;-145.33;100.00;60416.63;5023204;28;20030;-22
2023/08/21 05:14:24;;;;;;;15.80;9.57;;;;;;;-145.33;100.00;60416.63;5007781;28;20486;-23
2023/08/21 05:16:50;;;;;;;16.02;10.30;;;;;;;-145.33;100.00;60416.63;5008087;28;20025;-22
2023/08/21 05:19:16;;;;;;;14.48;8.60;;;;;;;-145.33;100.00;60416.63;5007770;28;20053;-22
2023/08/21 05:21:42;;;;;;;11.63;8.75;;;;;;;-145.33;100.00;60416.63;5007903;28;20108;-22
2023/08/21 05:24:07;;;;;;;15.23;9.60;;;;;;;-145.33;100.00;60416.63;5007995;28;20056;-23
2023/08/21 05:26:35;;;;;;;17.75;8.90;;;;;;;-145.33;100.00;60416.63;5007805;28;20053;-22
2023/08/21 05:29:00;;;;;;;12.68;8.32;;;;;;;-145.33;100.00;60416.63;5007964;28;20030;-26
2023/08/21 05:31:26;;;;;;;11.75;8.15;;;;;;;-145.33;100.00;60416.63;5007353;28;20048;-22
2023/08/21 05:33:53;;;;;;;10.50;7.57;;;;;;;-145.33;100.00;60416.63;5007316;28;20037;-23
2023/08/21 05:36:19;;;;;;;12.80;7.82;;;;;;;-145.33;100.00;60416.63;5007752;28;20030;-22
2023/08/21 05:38:45;;;;;;;12.38;7.50;;;;;;;-145.33;100.00;60416.63;5007369;28;20065;-22
2023/08/21 05:41:13;;;;;;;10.15;7.03;;;;;;;-145.33;100.00;60416.63;5007650;28;20044;-23
2023/08/21 05:43:39;;;;;;;11.40;7.93;;;;;;;-145.33;100.00;60416.63;4986994;28;21115;-23
2023/08/21 05:46:06;;;;;;;12.32;8.70;;;;;;;-145.33;100.00;60416.63;4984969;28;20057;-23
2023/08/21 05:48:31;;;;;;;10.48;8.07;;;;;;;-145.33;100.00;60416.63;4986644;28;20550;-22
2023/08/21 05:50:57;;;;;;;11.30;7.10;;;;;;;-145.33;100.00;60416.63;4987031;28;20053;-25
2023/08/21 05:53:22;;;;;;;13.18;9.10;;;;;;;-145.33;100.00;60416.63;4987313;28;20018;-22
2023/08/21 05:55:47;;;;;;;14.82;9.40;;;;;;;-145.33;100.00;60416.63;4987737;28;20025;-23
2023/08/21 05:58:13;;;;;;;17.08;10.25;;;;;;;-145.33;100.00;60416.63;4986854;28;20053;-24
2023/08/21 06:00:39;;;;;;;13.38;8.00;;;;;;;-145.33;100.00;60416.63;4987492;28;20526;-23
2023/08/21 06:03:05;;;;;;;9.82;6.80;;;;;;;-145.33;100.00;60416.63;4984650;28;20038;-23
2023/08/21 06:05:30;;;;;;;10.23;6.80;;;;;;;-145.33;100.00;60416.63;4987197;28;20365;-22
2023/08/21 06:07:56;;;;;;;10.30;6.78;;;;;;;-145.33;100.00;60416.63;4987002;28;20042;-23
2023/08/21 06:10:21;;;;;;;15.27;7.65;;;;;;;-145.33;100.00;60416.63;4986851;28;20072;-23
2023/08/21 06:12:48;;;;;;;12.05;7.47;;;;;;;-145.33;100.00;60416.63;4987163;28;20026;-23
2023/08/21 06:15:13;;;;;;;9.23;6.68;;;;;;;-145.33;100.00;60416.63;4986577;28;20022;-22
2023/08/21 06:17:41;;;;;;;9.40;7.47;;;;;;;-145.33;100.00;60416.63;4987129;28;20097;-27
2023/08/21 06:20:08;;;;;;;11.88;7.07;;;;;;;-145.33;100.00;60416.63;4984399;28;20089;-23
2023/08/21 06:22:35;;;;;;;15.10;8.35;;;;;;;-145.33;100.00;60416.63;4984743;28;20042;-23
2023/08/21 06:25:01;;;;;;;19.20;8.03;;;;;;;-145.33;100.00;60416.63;4987023;28;20063;-22
2023/08/21 06:27:29;;;;;;;13.27;8.20;;;;;;;-145.33;100.00;60416.63;4987172;28;20269;-22
2023/08/21 06:29:57;;;;;;;10.98;6.85;;;;;;;-145.33;100.00;60416.63;4987012;28;20037;-23
2023/08/21 06:32:22;;;;;;;12.57;6.70;;;;;;;-145.33;100.00;60416.63;4987098;28;20026;-25
2023/08/21 06:34:48;;;;;;;11.30;6.97;;;;;;;-145.33;100.00;60416.63;4985317;28;20034;-22
2023/08/21 06:37:13;;;;;;;11.20;7.78;;;;;;;-145.33;100.00;60416.63;4986860;28;20490;-23
2023/08/21 06:39:39;;;;;;;11.23;6.68;;;;;;;-145.33;100.00;60416.63;4987271;28;20038;-22
2023/08/21 06:42:05;;;;;;;12.02;6.57;;;;;;;-145.33;100.00;60416.63;4986523;28;20077;-24
2023/08/21 06:44:30;;;;;;;10.32;6.18;;;;;;;-145.33;100.00;60416.63;4987098;28;20062;-23
2023/08/21 06:46:56;;;;;;;9.55;6.40;;;;;;;-145.33;100.00;60416.63;4986308;28;20041;-23
2023/08/21 06:49:21;;;;;;;11.23;6.35;;;;;;;-145.33;100.00;60416.63;4986878;28;20037;-22
2023/08/21 06:51:49;;;;;;;9.57;6.20;;;;;;;-145.33;100.00;60416.63;4986509;28;20095;-23
2023/08/21 06:54:14;;;;;;;;;;;;;;;-145.33;100.00;60416.63;4986819;28;20547;-23
2023/08/21 06:56:40;;;;;;;10.20;6.15;;;;;;;-145.33;100.00;60416.63;4984584;28;19913;-22
2023/08/21 06:59:05;;;;;;;9.63;5.65;;;;;;;-145.33;100.00;60416.63;4985997;28;20494;-23
2023/08/21 07:01:30;;;;;;;10.75;5.95;;;;;;;-145.33;100.00;60416.63;4986562;28;20023;-22
2023/08/21 07:03:56;;;;;;;10.32;6.25;;;;;;;-145.33;100.00;60416.63;4986437;28;20030;-23
2023/08/21 07:06:21;;;;;;;11.57;5.97;;;;;;;-145.33;100.00;60416.63;4986506;28;20528;-22
2023/08/21 07:08:47;;;;;;;8.07;5.78;;;;;;;-145.33;100.00;60416.63;5002980;28;20044;-23
2023/08/21 07:11:17;;;;;;;10.98;6.13;;;;;;;-145.33;100.00;60416.63;5006070;28;20018;-25
2023/08/21 07:13:42;;;;;;;9.50;5.90;;;;;;;-145.33;100.00;60416.63;5005531;28;20105;-25
2023/08/21 07:16:08;;;;;;;10.07;6.07;;;;;;;-145.33;100.00;60416.63;5005480;28;20543;-22
2023/08/21 07:18:35;;;;;;;12.43;6.07;;;;;;;-145.33;100.00;60416.63;5005132;28;20033;-23
2023/08/21 07:21:01;;;;;;;10.90;5.90;;;;;;;-145.33;100.00;60416.63;5005613;28;20033;-23
2023/08/21 07:23:29;;;;;;;10.80;6.10;;;;;;;-145.33;100.00;60416.63;5005478;28;20493;-22
2023/08/21 07:25:55;;;;;;;10.40;5.82;;;;;;;-145.33;100.00;60416.63;5005567;28;20531;-22
2023/08/21 07:28:20;;;;;;;9.90;5.20;;;;;;;-145.33;100.00;60416.63;5005536;28;20565;-23
2023/08/21 07:30:45;;;;;;;8.18;5.25;;;;;;;-145.33;100.00;60416.63;5005345;28;20026;-22
2023/08/21 07:33:11;;;;;;;12.90;6.68;;;;;;;-145.33;100.00;60416.63;5005968;28;20034;-23
2023/08/21 07:35:39;;;;;;;11.60;5.28;;;;;;;-145.33;100.00;60416.63;5005834;28;20026;-23
2023/08/21 07:38:04;;;;;;;8.55;5.00;;;;;;;-145.33;100.00;60416.63;5005778;28;20026;-23
2023/08/21 07:40:30;;;;;;;8.30;4.72;;;;;;;-145.33;100.00;60416.63;5005596;28;20022;-22
2023/08/21 07:42:55;;;;;;;11.18;5.03;;;;;;;-145.33;100.00;60416.63;5005289;28;20030;-24
2023/08/21 07:45:21;;;;;;;13.60;5.40;;;;;;;-145.33;100.00;60416.63;5005743;28;20018;-23
2023/08/21 07:47:46;;;;;;;10.63;5.55;;;;;;;-145.33;100.00;60416.63;5005636;28;20421;-23
2023/08/21 07:50:14;;;;;;;8.32;4.88;;;;;;;-145.33;100.00;60416.63;5005837;28;20034;-22
2023/08/21 07:52:39;;;;;;;;;;;;;;;-145.33;100.00;60416.63;5005926;28;20026;-23
2023/08/21 07:55:05;;;;;;;12.63;5.18;;;;;;;-145.33;100.00;60416.63;4987861;28;19921;-23
2023/08/21 07:57:30;;;;;;;10.73;5.05;;;;;;;-145.33;100.00;60416.63;5005444;28;20587;-23
2023/08/21 07:59:56;;;;;;;9.63;5.07;;;;;;;-145.33;100.00;60416.63;5005209;28;20421;-25
2023/08/21 08:02:21;;;;;;;9.60;5.60;;;;;;;-145.33;100.00;60416.63;5005221;28;20052;-22
2023/08/21 08:04:47;;;;;;;9.60;5.53;;;;;;;-145.33;100.00;60416.63;5005632;28;20409;-22
2023/08/21 08:07:12;;;;;;;10.63;6.00;;;;;;;-145.33;100.00;60416.63;5005389;28;20181;-23
2023/08/21 08:09:39;;;;;;;8.80;5.88;;;;;;;-145.33;100.00;60416.63;5005523;28;20041;-23
2023/08/21 08:12:08;;;;;;;8.75;5.85;;;;;;;-145.33;100.00;60416.63;5006229;28;20036;-24
2023/08/21 08:14:36;;;;;;;10.57;6.05;;;;;;;-145.33;100.00;60416.63;5009006;28;20037;-25
2023/08/21 08:17:01;;;;;;;7.28;5.28;;;;;;;-145.33;100.00;60416.63;4991469;28;20037;-22
2023/08/21 08:19:27;;;;;;;9.50;5.97;;;;;;;-145.33;100.00;60416.63;5009001;28;20501;-23
2023/08/21 08:21:53;;;;;;;10.40;5.90;;;;;;;-145.33;100.00;60416.63;5009078;28;20501;-26
2023/08/21 08:24:18;;;;;;;10.27;5.63;;;;;;;-145.33;100.00;60416.63;5008520;28;20022;-24
2023/08/21 08:26:44;;;;;;;7.97;5.30;;;;;;;-145.33;100.00;60416.63;5009018;28;20061;-23
2023/08/21 08:29:09;;;;;;;11.23;6.20;;;;;;;-145.33;100.00;60416.63;5008496;28;20042;-22
2023/08/21 08:31:35;;;;;;;11.32;5.38;;;;;;;-145.33;100.00;60416.63;5008543;28;20033;-23
2023/08/21 08:34:00;;;;;;;7.15;5.13;;;;;;;-145.33;100.00;60416.63;5008494;28;20041;-24
2023/08/21 08:36:26;;;;;;;9.00;5.28;;;;;;;-145.33;100.00;60416.63;5008604;28;20022;-22
2023/08/21 08:38:51;;;;;;;13.02;5.22;;;;;;;-145.33;100.00;60416.63;5008689;28;20480;-23
2023/08/21 08:41:33;;;;;;;9.95;5.10;;;;;;;-145.33;100.00;60416.63;5009058;28;20017;-27
2023/08/21 08:44:01;;;;;;;7.50;4.70;;;;;;;-145.33;100.00;60416.63;5008365;28;20113;-24
2023/08/21 08:46:31;;;;;;;11.90;5.05;;;;;;;-145.33;100.00;60416.63;5009085;28;20030;-22
2023/08/21 08:48:57;;;;;;;7.25;4.90;;;;;;;-145.33;100.00;60416.63;5008562;28;20100;-22
2023/08/21 08:51:30;;;;;;;8.75;4.50;;;;;;;-145.33;100.00;60416.63;5008732;28;20476;-23
2023/08/21 08:53:57;;;;;;;9.68;4.72;;;;;;;-145.33;100.00;60416.63;5008315;28;20037;-24
2023/08/21 08:56:23;;;;;;;6.85;4.43;;;;;;;-145.33;100.00;60416.63;5008073;28;20030;-22
2023/08/21 08:58:49;;;;;;;7.35;4.57;;;;;;;-145.33;100.00;60416.63;5008411;28;20117;-22
2023/08/21 09:01:15;;;;;;;8.68;3.97;;;;;;;-145.33;100.00;60416.63;5007625;28;20116;-23
2023/08/21 09:03:40;;;;;;;5.78;3.45;;;;;;;-145.33;100.00;60416.63;5006999;28;20141;-22
2023/08/21 09:06:05;;;;;;;6.47;3.28;;;;;;;-145.33;100.00;60416.63;5008091;28;20818;-23
2023/08/21 09:08:31;;;;;;;6.00;3.28;;;;;;;-145.33;100.00;60416.63;5007634;28;20065;-24
2023/08/21 09:11:02;;;;;;;8.68;3.38;;;;;;;-145.33;100.00;60416.63;5007950;28;20037;-24
2023/08/21 09:13:27;;;;;;;7.53;3.42;;;;;;;-145.33;100.00;60416.63;5007929;28;20108;-22
2023/08/21 09:15:54;;;;;;;8.90;3.30;;;;;;;-145.33;100.00;60416.63;5007986;28;20117;-22
2023/08/21 09:18:19;;;;;;;7.40;3.15;;;;;;;-145.33;100.00;60416.63;5008191;28;20053;-23
2023/08/21 09:20:45;;;;;;;6.75;3.08;;;;;;;-145.33;100.00;60416.63;5007906;28;20062;-24
2023/08/21 09:23:16;;;;;;;5.80;3.40;;;;;;;-145.33;100.00;60416.63;5007196;28;20448;-22
2023/08/21 09:25:44;;;;;;;7.65;3.33;;;;;;;-145.33;100.00;60416.63;5007094;28;20037;-22
2023/08/21 09:28:10;;;;;;;7.32;3.40;;;;;;;-145.33;100.00;60416.63;5007892;28;20045;-23
2023/08/21 09:30:51;;;;;;;7.55;3.50;;;;;;;-145.33;100.00;60416.63;5007882;28;20080;-22
2023/08/21 09:33:18;;;;;;;6.53;3.40;;;;;;;-145.33;100.00;60416.63;5007869;28;20048;-24
2023/08/21 09:35:44;;;;;;;;;;;;;;;-145.33;100.00;60416.63;5007912;28;20061;-25
2023/08/21 09:38:14;;;;;;;7.43;3.10;;;;;;;-145.33;100.00;60416.63;5007515;28;20022;-23
2023/08/21 09:40:51;;;;;;;5.70;3.17;;;;;;;-145.33;100.00;60416.63;5007921;28;20034;-24
2023/08/21 09:43:23;;;;;;;7.85;3.30;;;;;;;-145.33;100.00;60416.63;5007601;28;20087;-22
2023/08/21 09:45:57;;;;;;;6.80;3.00;;;;;;;-145.33;100.00;60416.63;5007330;28;20064;-23
2023/08/21 09:48:26;;;;;;;10.55;3.65;;;;;;;-145.33;100.00;60416.63;5007370;28;20057;-24
2023/08/21 09:50:53;;;;;;;5.10;3.10;;;;;;;-145.33;100.00;60416.63;5007529;28;20097;-24
2023/08/21 09:53:22;;;;;;;8.40;3.07;;;;;;;-145.33;100.00;60416.63;5007480;28;20053;-26
2023/08/21 09:55:48;;;;;;;7.45;3.15;;;;;;;-145.33;100.00;60416.63;5007346;28;20273;-24
2023/08/21 09:58:18;;;;;;;9.50;3.00;;;;;;;-145.33;100.00;60416.63;5007389;28;20030;-26
2023/08/21 10:00:48;;;;;;;10.90;3.47;;;;;;;-145.33;100.00;60416.63;5007030;28;20505;-22
2023/08/21 10:03:15;;;;;;;7.55;3.22;;;;;;;-145.33;100.00;60416.63;5007312;28;20034;-24
2023/08/21 10:05:43;;;;;;;5.80;3.00;;;;;;;-145.33;100.00;60416.63;5006977;28;20033;-22
2023/08/21 10:08:10;;;;;;;8.07;2.88;;;;;;;-145.33;100.00;60416.63;5006776;28;20040;-24
2023/08/21 10:10:38;;;;;;;5.47;2.90;;;;;;;-145.33;100.00;60416.63;5006832;28;20041;-23
2023/08/21 10:13:05;;;;;;;4.88;2.90;;;;;;;-145.33;100.00;60416.63;5007004;28;20420;-23
2023/08/21 10:15:36;;;;;;;6.82;3.03;;;;;;;-145.33;100.00;60416.63;5007073;28;20034;-23
2023/08/21 10:18:21;;;;;;;20.13;4.45;;;;;;;-145.33;100.00;60416.63;5006592;28;20132;-27
2023/08/21 10:20:50;;;;;;;5.80;2.92;;;;;;;-145.33;100.00;60416.63;5007031;28;20110;-23
2023/08/21 10:23:27;;;;;;;6.78;2.78;;;;;;;-145.33;100.00;60416.63;5006648;28;20424;-23
2023/08/21 10:26:04;;;;;;;7.75;2.97;;;;;;;-145.33;100.00;60416.63;5006796;28;20032;-23
2023/08/21 10:28:43;;;;;;;5.82;3.05;;;;;;;-145.33;100.00;60416.63;5006414;28;20151;-22
2023/08/21 10:31:27;;;;;;;7.45;2.78;;;;;;;-145.33;100.00;60416.63;5006599;28;20044;-21
2023/08/21 10:33:58;;;;;;;7.55;2.90;;;;;;;-145.33;100.00;60416.63;5006466;28;20026;-23
2023/08/21 10:36:45;;;;;;;7.07;2.80;;;;;;;-145.33;100.00;60416.63;5005747;28;20042;-23
2023/08/21 10:39:13;;;;;;;;;;;;;;;-145.33;100.00;60416.63;5006847;28;20559;-23
2023/08/21 10:41:52;;;;;;;8.18;2.65;;;;;;;-145.33;100.00;60416.63;5006291;28;19913;-22
2023/08/21 10:44:36;;;;;;;7.10;2.70;;;;;;;-145.33;100.00;60416.63;5006432;28;20061;-28
2023/08/21 10:47:24;;;;;;;4.95;2.90;;;;;;;-145.33;100.00;60416.63;5006612;28;21132;-23
2023/08/21 10:49:54;;;;;;;3.90;2.63;;;;;;;-145.33;100.00;60416.63;5006331;28;20030;-23
2023/08/21 10:52:32;;;;;;;7.32;3.42;;;;;;;-145.33;100.00;60416.63;5006376;28;20040;-22
2023/08/21 10:55:02;;;;;;;8.30;3.13;;;;;;;-145.33;100.00;60416.63;5006057;28;20141;-23
2023/08/21 10:57:30;;;;;;;6.35;2.50;;;;;;;-145.33;100.00;60416.63;5006418;28;20117;-23
2023/08/21 10:59:57;;;;;;;9.13;2.75;;;;;;;-145.33;100.00;60416.63;5006082;28;20088;-22